Time;durP1;ratioP1;P1;durP2;ratioP2;P2;SDS_P1;SDS_P2;PMS_P1;PMS_P2;Temp;Humidity;BMP_temperature;BMP_pressure;BME280_temperature;BME280_humidity;BME280_pressure;Samples;Min_cycle;Max_cycle;Signal;HPM_P1;HPM_P2
2023/05/27 00:00:02;;;;;;;;;;;20.70;49.70;;;20.86;33.86;99373.47;5084034;27;115048;-80
2023/05/27 00:02:28;;;;;;;;;;;20.60;49.80;;;20.79;33.97;99362.88;5080277;27;112774;-80
2023/05/27 00:04:57;;;;;;;;;;;20.60;49.90;;;20.76;34.09;99368.41;5087908;27;124542;-80
2023/05/27 00:07:23;;;;;;;;;;;20.60;49.90;;;20.69;33.85;99369.88;5089606;27;124718;-80
2023/05/27 00:09:49;;;;;;;;;;;20.50;49.80;;;20.62;34.12;99368.91;5085028;27;114802;-80
2023/05/27 00:12:21;;;;;;;;;;;20.50;49.90;;;20.59;34.25;99369.66;5069041;27;113505;-81
2023/05/27 00:14:47;;;;;;;;;;;20.40;50.00;;;20.56;34.01;99370.38;5070892;27;124840;-80
2023/05/27 00:17:13;;;;;;;;;;;20.40;50.10;;;20.51;34.03;99374.25;5075453;27;123445;-81
2023/05/27 00:19:47;;;;;;;;;;;20.30;50.10;;;20.49;34.36;99365.38;5086254;27;116217;-80
2023/05/27 00:22:14;;;;;;;;;;;20.30;50.30;;;20.49;34.63;99362.56;5083070;27;114716;-81
2023/05/27 00:24:41;;;;;;;;;;;20.30;50.50;;;20.50;34.29;99369.81;5087390;27;123379;-81
2023/05/27 00:27:10;;;;;;;;;;;20.30;50.60;;;20.44;34.50;99366.44;5076614;27;123037;-81
2023/05/27 00:29:37;;;;;;;;;;;20.20;50.40;;;20.40;34.29;99374.00;5059992;27;114340;-80
2023/05/27 00:32:03;;;;;;;;;;;20.20;50.40;;;20.34;34.08;99369.00;5089563;27;113511;-80
2023/05/27 00:34:38;;;;;;;;;;;20.10;50.30;;;20.29;34.49;99373.72;5061222;27;123976;-81
2023/05/27 00:37:05;;;;;;;;;;;20.10;50.40;;;20.25;34.26;99378.44;5052904;27;123316;-79
2023/05/27 00:39:33;;;;;;;;;;;20.00;50.40;;;20.24;34.31;99365.59;5071447;27;114561;-81
2023/05/27 00:42:00;;;;;;;;;;;20.00;50.60;;;20.24;34.78;99359.16;5070084;27;113470;-81
2023/05/27 00:44:27;;;;;;;;;;;20.00;50.70;;;20.21;34.79;99371.94;5073073;27;124578;-81
2023/05/27 00:46:57;;;;;;;;;;;20.00;50.80;;;20.21;34.79;99360.72;5070015;27;124101;-79
2023/05/27 00:49:25;;;;;;;;;;;20.00;50.90;;;20.20;34.84;99361.91;5071619;27;116615;-81
2023/05/27 00:51:54;;;;;;;;;;;20.00;51.00;;;20.15;34.71;99353.75;5080427;27;113747;-82
2023/05/27 00:54:20;;;;;;;;;;;19.90;50.90;;;20.07;34.82;99357.56;5056216;27;124281;-80
2023/05/27 00:56:46;;;;;;;;;;;19.70;50.80;;;19.99;34.99;99358.56;5060917;27;122760;-81
2023/05/27 00:59:13;;;;;;;;;;;19.80;51.10;;;19.90;35.28;99355.09;5073271;27;113808;-82
2023/05/27 01:01:43;;;;;;;;;;;19.70;51.40;;;19.78;35.41;99353.19;5057744;27;113279;-80
2023/05/27 01:04:12;;;;;;;;;;;19.60;51.40;;;19.71;35.39;99353.00;5064094;27;123249;-82
2023/05/27 01:06:51;;;;;;;;;;;19.50;51.60;;;19.66;35.49;99351.28;5071175;27;124662;-81
2023/05/27 01:09:20;;;;;;;;;;;19.50;51.60;;;19.62;35.55;99350.34;5064422;27;115061;-80
2023/05/27 01:11:51;;;;;;;;;;;19.40;51.60;;;19.61;35.58;99352.34;5087425;27;114480;-81
2023/05/27 01:14:18;;;;;;;;;;;19.40;51.80;;;19.59;36.04;99339.84;5077555;27;124128;-81
2023/05/27 01:16:46;;;;;;;;;;;19.40;51.80;;;19.59;35.92;99346.28;5063009;27;124092;-81
2023/05/27 01:19:16;;;;;;;;;;;19.40;51.90;;;19.59;36.09;99345.47;5059374;27;114174;-81
2023/05/27 01:21:47;;;;;;;;;;;19.40;52.00;;;19.58;35.82;99344.63;5055474;27;112967;-81
2023/05/27 01:24:13;;;;;;;;;;;19.40;52.00;;;19.59;36.04;99339.84;5072539;27;124656;-81
2023/05/27 01:26:40;;;;;;;;;;;19.40;52.10;;;19.60;36.11;99344.28;5055338;27;124378;-82
2023/05/27 01:29:06;;;;;;;;;;;19.40;52.20;;;19.60;36.00;99347.88;5088869;27;115501;-81
2023/05/27 01:31:48;;;;;;;;;;;19.30;52.20;;;19.59;36.02;99342.66;5067602;27;115448;-81
2023/05/27 01:34:21;;;;;;;;;;;19.40;52.50;;;19.58;36.00;99338.22;5087586;27;124066;-80
2023/05/27 01:36:51;;;;;;;;;;;19.30;52.50;;;19.58;36.22;99332.59;5071684;27;123562;-80
2023/05/27 01:39:18;;;;;;;;;;;19.30;52.50;;;19.54;36.27;99335.31;5070779;27;114630;-82
2023/05/27 01:41:45;;;;;;;;;;;19.30;52.60;;;19.54;36.53;99338.13;5068104;27;114240;-82
2023/05/27 01:44:12;;;;;;;;;;;19.30;52.80;;;19.54;36.64;99337.31;5064575;27;124400;-80
2023/05/27 01:46:41;;;;;;;;;;;18.30;52.10;;;19.52;36.77;99334.06;5076911;27;124073;-82
2023/05/27 01:49:12;;;;;;;;;;;19.30;53.80;;;19.51;36.61;99329.63;5088604;27;114862;-81
2023/05/27 01:51:40;;;;;;;;;;;19.30;53.20;;;19.50;36.83;99325.19;5087312;27;112878;-81
2023/05/27 01:54:09;;;;;;;;;;;19.30;53.40;;;19.46;36.85;99322.28;5069366;27;125117;-80
2023/05/27 01:56:36;;;;;;;;;;;19.20;53.50;;;19.45;37.13;99317.03;5088333;27;123853;-81
2023/05/27 01:59:02;;;;;;;;;;;19.20;53.60;;;19.40;37.08;99321.75;5086732;27;115400;-81
2023/05/27 02:01:30;;;;;;;;;;;19.20;53.60;;;19.36;37.23;99318.00;5055566;27;114258;-81
2023/05/27 02:03:57;;;;;;;;;;;19.20;53.70;;;19.33;37.26;99315.94;5073082;27;124786;-81
2023/05/27 02:06:23;;;;;;;;;;;19.10;53.70;;;19.29;37.23;99320.63;5050084;27;123220;-81
2023/05/27 02:08:49;;;;;;;;;;;19.10;53.90;;;19.27;37.39;99322.16;5051884;27;114416;-82
2023/05/27 02:11:18;;;;;;;;;;;19.10;54.00;;;19.25;37.55;99318.91;5087790;27;113917;-81
2023/05/27 02:13:44;;;;;;;;;;;19.00;54.10;;;19.20;37.81;99317.97;5087752;27;124008;-81
2023/05/27 02:16:12;;;;;;;;;;;19.00;54.20;;;19.18;37.74;99313.91;5086032;27;124947;-81
2023/05/27 02:18:40;;;;;;;;;;;19.00;54.30;;;19.18;38.00;99325.09;5071293;27;113645;-82
2023/05/27 02:21:06;;;;;;;;;;;18.50;54.00;;;19.17;37.75;99315.09;5085831;27;114087;-82
2023/05/27 02:23:36;;;;;;;;;;;19.00;54.60;;;19.15;37.90;99315.44;5081634;27;124377;-81
2023/05/27 02:26:02;;;;;;;;;;;18.90;54.70;;;19.13;37.96;99314.19;5051222;27;123987;-81
2023/05/27 02:28:28;;;;;;;;;;;18.90;54.70;;;19.10;37.89;99323.28;5051167;27;113388;-81
2023/05/27 02:30:54;;;;;;;;;;;18.90;54.80;;;19.08;37.98;99318.06;5070013;27;113787;-82
2023/05/27 02:33:21;;;;;;;;;;;18.90;54.90;;;19.07;38.04;99315.59;5091237;27;125149;-81
2023/05/27 02:35:47;;;;;;;;;;;18.80;54.90;;;19.03;38.23;99315.50;5087127;27;123719;-82
2023/05/27 02:38:13;;;;;;;;;;;18.80;55.00;;;19.03;38.23;99317.50;5050472;27;113383;-82
2023/05/27 02:40:42;;;;;;;;;;;18.80;55.00;;;18.98;38.26;99316.56;5078386;27;113800;-82
2023/05/27 02:43:08;;;;;;;;;;;18.80;55.20;;;18.96;38.55;99318.91;5076406;27;124458;-82
2023/05/27 02:45:34;;;;;;;;;;;18.70;55.20;;;18.93;38.49;99313.19;5078962;27;123444;-82
2023/05/27 02:48:01;;;;;;;;;;;18.70;55.20;;;18.90;38.46;99320.31;5079063;27;116021;-82
2023/05/27 02:50:29;;;;;;;;;;;18.70;55.40;;;18.87;38.63;99309.84;5073355;27;114665;-82
2023/05/27 02:52:56;;;;;;;;;;;18.60;55.40;;;18.84;38.70;99307.75;5076541;27;124395;-81
2023/05/27 02:55:24;;;;;;;;;;;18.60;55.50;;;18.81;38.74;99316.88;5068492;27;124567;-82
2023/05/27 02:57:50;;;;;;;;;;;18.60;55.60;;;18.78;38.76;99317.59;5090308;27;114601;-82
2023/05/27 03:00:17;;;;;;;;;;;18.60;55.70;;;18.73;38.92;99307.41;5057470;27;114124;-82
2023/05/27 03:02:44;;;;;;;;;;;18.50;55.70;;;18.72;39.00;99310.56;5087714;27;124276;-81
2023/05/27 03:05:10;;;;;;;;;;;18.50;55.90;;;18.69;39.02;99308.47;5077064;27;123677;-82
2023/05/27 03:07:36;;;;;;;;;;;18.50;56.00;;;18.64;39.05;99308.72;5089567;27;114874;-82
2023/05/27 03:10:03;;;;;;;;;;;18.40;56.00;;;18.63;39.13;99309.88;5090687;27;113869;-81
2023/05/27 03:12:31;;;;;;;;;;;18.40;56.10;;;18.59;39.33;99312.59;5087821;27;123625;-82
2023/05/27 03:15:00;;;;;;;;;;;18.40;56.30;;;18.55;39.30;99314.44;5075552;27;124055;-80
2023/05/27 03:17:28;;;;;;;;;;;18.40;56.40;;;18.52;39.41;99304.78;5084339;27;114365;-82
2023/05/27 03:19:55;;;;;;;;;;;18.30;56.40;;;18.49;39.56;99311.09;5080651;27;114043;-81
2023/05/27 03:22:21;;;;;;;;;;;18.30;56.60;;;18.47;39.54;99307.00;5062886;27;123355;-81
2023/05/27 03:24:47;;;;;;;;;;;18.20;56.60;;;18.46;39.67;99316.59;5081751;27;123990;-81
2023/05/27 03:27:14;;;;;;;;;;;18.20;56.70;;;18.43;39.68;99314.47;5085905;27;114008;-82
2023/05/27 03:29:42;;;;;;;;;;;18.20;56.80;;;18.41;39.71;99319.63;5091760;27;113701;-82
2023/05/27 03:32:09;;;;;;;;;;;18.20;56.90;;;18.37;39.93;99316.69;5092761;27;124802;-81
2023/05/27 03:34:40;;;;;;;;;;;18.20;57.10;;;18.34;39.99;99320.19;5055162;27;123222;-82
2023/05/27 03:37:06;;;;;;;;;;;18.10;57.10;;;18.29;40.07;99312.84;5085825;27;114991;-81
2023/05/27 03:39:32;;;;;;;;;;;18.10;57.30;;;18.28;40.14;99314.03;5082265;27;115169;-82
2023/05/27 03:41:59;;;;;;;;;;;18.10;57.40;;;18.27;40.31;99320.00;5089830;27;124715;-81
2023/05/27 03:44:25;;;;;;;;;;;18.00;57.40;;;18.24;40.24;99315.91;5082956;27;124195;-81
2023/05/27 03:46:51;;;;;;;;;;;18.00;57.50;;;18.22;40.36;99321.03;5066024;27;113885;-82
2023/05/27 03:49:20;;;;;;;;;;;18.00;57.60;;;18.20;40.41;99317.75;5091224;27;113896;-82
2023/05/27 03:51:46;;;;;;;;;;;18.00;57.80;;;18.19;40.45;99315.31;5090106;27;124407;-82
2023/05/27 03:54:15;;;;;;;;;;;17.90;57.70;;;18.17;40.64;99309.28;5075251;27;124557;-82
2023/05/27 03:56:44;;;;;;;;;;;18.00;58.00;;;18.15;40.66;99318.00;5089709;27;114675;-83
2023/05/27 03:59:11;;;;;;;;;;;17.90;58.00;;;18.13;40.58;99328.72;5088437;27;114052;-82
2023/05/27 04:01:38;;;;;;;;;;;17.90;58.10;;;18.10;40.69;99316.25;5085254;27;124361;-81
2023/05/27 04:04:04;;;;;;;;;;;17.90;58.10;;;18.06;40.68;99314.53;5090380;27;123995;-82
2023/05/27 04:06:33;;;;;;;;;;;17.80;58.10;;;18.00;40.75;99313.94;5089646;27;113669;-82
2023/05/27 04:09:02;;;;;;;;;;;17.70;58.10;;;17.94;40.95;99314.50;5088113;27;113731;-82
2023/05/27 04:11:29;;;;;;;;;;;17.70;58.40;;;17.90;41.03;99314.41;5076733;27;124588;-81
2023/05/27 04:13:58;;;;;;;;;;;17.60;58.40;;;17.88;41.08;99323.13;5071550;27;123699;-81
2023/05/27 04:16:26;;;;;;;;;;;17.60;58.40;;;17.84;41.41;99318.59;5093595;27;114109;-83
2023/05/27 04:18:52;;;;;;;;;;;17.60;58.80;;;17.76;41.38;99311.06;5087632;27;114469;-81
2023/05/27 04:21:19;;;;;;;;;;;18.40;59.60;;;17.69;41.60;99322.03;5072346;27;123207;-83
2023/05/27 04:23:48;;;;;;;;;;;17.40;58.90;;;17.65;41.61;99319.94;5074795;27;123886;-82
2023/05/27 04:26:14;;;;;;;;;;;17.40;58.90;;;17.67;41.70;99325.16;5082175;27;116014;-83
2023/05/27 04:28:40;;;;;;;;;;;17.40;59.00;;;17.70;41.79;99323.66;5057825;27;114627;-83
2023/05/27 04:31:12;;;;;;;;;;;17.40;59.10;;;17.74;41.73;99324.59;5050329;27;123259;-83
2023/05/27 04:33:39;;;;;;;;;;;17.40;59.20;;;17.76;41.67;99327.84;5056456;27;124530;-82
2023/05/27 04:36:06;;;;;;;;;;;17.40;59.30;;;17.75;41.77;99332.63;5052351;27;114661;-84
2023/05/27 04:38:35;;;;;;;;;;;17.40;59.70;;;17.71;41.95;99325.31;5069055;27;113916;-82
2023/05/27 04:41:02;;;;;;;;;;;17.40;59.80;;;17.62;42.04;99329.03;5067572;27;125028;-81
2023/05/27 04:43:29;;;;;;;;;;;17.40;59.90;;;17.56;42.19;99321.19;5065552;27;123712;-82
2023/05/27 04:46:02;;;;;;;;;;;17.30;59.70;;;17.51;42.26;99316.63;5068779;27;113365;-82
2023/05/27 04:48:30;;;;;;;;;;;17.30;59.90;;;17.48;42.49;99322.91;5060835;27;113437;-81
2023/05/27 04:50:57;;;;;;;;;;;17.30;60.20;;;17.47;42.50;99326.06;5064854;27;124180;-82
2023/05/27 04:53:23;;;;;;;;;;;17.20;60.40;;;17.47;42.54;99326.88;5066003;27;124268;-82
2023/05/27 04:55:49;;;;;;;;;;;17.20;60.20;;;17.49;42.52;99321.78;5069623;27;114409;-82
2023/05/27 04:58:16;;;;;;;;;;;17.20;60.40;;;17.44;42.50;99325.59;5062812;27;113932;-83
2023/05/27 05:00:53;;;;;;;;;;;17.20;60.50;;;17.44;42.72;99317.22;5057765;27;124106;-82
2023/05/27 05:03:36;;;;;;;;;;;17.20;60.60;;;17.41;42.52;99317.09;5066564;27;123321;-82
2023/05/27 05:06:05;;;;;;;;;;;17.10;60.60;;;17.38;42.79;99318.59;5067263;27;114463;-81
2023/05/27 05:08:31;;;;;;;;;;;17.10;60.70;;;17.38;42.56;99313.03;5058576;27;113897;-82
2023/05/27 05:10:57;;;;;;;;;;;17.10;60.70;;;17.42;42.78;99318.72;5061054;27;124335;-81
2023/05/27 05:13:28;;;;;;;;;;;17.10;60.80;;;17.44;42.88;99320.00;5069655;27;123841;-82
2023/05/27 05:15:58;;;;;;;;;;;17.10;61.00;;;17.48;42.42;99320.13;5060051;27;115663;-82
2023/05/27 05:18:26;;;;;;;;;;;17.20;61.00;;;17.52;43.02;99323.88;5060205;27;114563;-82
2023/05/27 05:20:52;;;;;;;;;;;17.20;61.60;;;17.53;42.88;99321.88;5058992;27;124722;-81
2023/05/27 05:23:19;;;;;;;;;;;17.20;61.30;;;17.57;43.01;99325.59;5061536;27;123846;-83
2023/05/27 05:25:46;;;;;;;;;;;17.20;61.30;;;17.59;42.88;99321.31;5063018;27;114021;-83
2023/05/27 05:28:13;;;;;;;;;;;17.20;61.30;;;17.63;42.88;99329.84;5070000;27;112945;-83
2023/05/27 05:30:39;;;;;;;;;;;17.30;61.50;;;17.64;42.94;99323.06;5065412;27;124101;-84
2023/05/27 05:33:05;;;;;;;;;;;17.40;61.60;;;17.67;42.79;99331.56;5076828;27;124414;-82
2023/05/27 05:35:32;;;;;;;;;;;17.30;61.70;;;17.62;42.98;99329.03;5077047;27;114829;-82
2023/05/27 05:37:58;;;;;;;;;;;17.30;61.70;;;17.62;42.94;99331.81;5076626;27;113679;-83
2023/05/27 05:40:24;;;;;;;;;;;17.20;61.70;;;17.60;43.00;99325.75;5082273;27;125146;-83
2023/05/27 05:42:50;;;;;;;;;;;17.20;61.80;;;17.61;43.00;99337.75;5059884;27;123662;-83
2023/05/27 05:45:17;;;;;;;;;;;17.20;61.70;;;17.67;43.11;99328.78;5058522;27;112193;-81
2023/05/27 05:47:43;;;;;;;;;;;17.30;62.10;;;17.76;43.17;99327.84;5068977;27;112929;-82
2023/05/27 05:50:09;;;;;;;;;;;17.30;62.20;;;17.81;42.83;99336.03;5065742;27;123612;-83
2023/05/27 05:52:36;;;;;;;;;;;17.30;62.00;;;17.87;42.71;99331.88;5067062;27;122970;-83
2023/05/27 05:55:03;;;;;;;;;;;17.40;61.80;;;17.96;42.49;99326.16;5087472;27;114339;-81
2023/05/27 05:57:31;;;;;;;;;;;17.50;61.80;;;18.06;42.46;99323.72;5073003;27;114082;-83
2023/05/27 05:59:59;;;;;;;;;;;17.60;61.90;;;18.13;42.22;99330.69;5087435;27;124260;-83
2023/05/27 06:02:28;;;;;;;;;;;17.60;61.80;;;18.12;42.32;99323.50;5075041;27;123724;-82
2023/05/27 06:04:54;;;;;;;;;;;17.50;61.70;;;18.15;42.53;99326.38;5074993;27;114967;-81
2023/05/27 06:07:23;;;;;;;;;;;17.60;61.90;;;18.21;42.36;99326.97;5072791;27;114522;-81
2023/05/27 06:09:49;;;;;;;;;;;17.70;61.70;;;18.26;42.30;99321.13;5086700;27;124329;-82
2023/05/27 06:12:16;;;;;;;;;;;17.70;61.60;;;18.32;42.34;99323.38;5068633;27;123837;-82
2023/05/27 06:14:42;;;;;;;;;;;17.80;61.80;;;18.43;42.05;99329.28;5088530;27;114268;-83
2023/05/27 06:17:08;;;;;;;;;;;17.90;61.70;;;18.52;42.03;99332.75;5086516;27;114552;-80
2023/05/27 06:19:37;;;;;;;;;;;18.00;61.50;;;18.55;41.63;99322.84;5065959;27;123906;-82
2023/05/27 06:22:05;;;;;;;;;;;18.00;61.40;;;18.55;41.57;99318.06;5065443;27;125149;-82
2023/05/27 06:24:31;;;;;;;;;;;18.00;61.20;;;18.55;41.73;99320.84;5068014;27;114702;-81
2023/05/27 06:26:58;;;;;;;;;;;18.00;61.10;;;18.57;41.39;99317.72;5047045;27;113410;-83
2023/05/27 06:29:24;;;;;;;;;;;18.10;61.00;;;18.58;41.42;99313.75;5072158;27;123742;-83
2023/05/27 06:31:50;;;;;;;;;;;18.10;61.00;;;18.61;41.45;99313.03;5089976;27;124675;-81
2023/05/27 06:34:16;;;;;;;;;;;18.10;61.00;;;18.63;41.16;99313.50;5072669;27;114115;-81
2023/05/27 06:36:43;;;;;;;;;;;18.10;60.80;;;18.66;41.20;99320.38;5048833;27;112772;-82
2023/05/27 06:39:09;;;;;;;;;;;18.10;60.80;;;18.66;41.25;99317.56;5074059;27;124781;-82
2023/05/27 06:41:35;;;;;;;;;;;18.10;60.90;;;18.70;41.16;99315.72;5069369;27;124133;-80
2023/05/27 06:44:02;;;;;;;;;;;18.10;60.90;;;18.74;41.18;99311.03;5087245;27;114544;-80
2023/05/27 06:46:28;;;;;;;;;;;18.20;61.00;;;18.76;41.28;99319.91;5076166;27;114028;-81
2023/05/27 06:48:57;;;;;;;;;;;18.20;61.00;;;18.81;41.19;99316.06;5064807;27;123763;-81
2023/05/27 06:51:27;;;;;;;;;;;18.20;61.00;;;18.86;41.40;99324.19;5085020;27;123706;-80
2023/05/27 06:53:58;;;;;;;;;;;18.30;61.20;;;18.88;41.51;99310.66;5075669;27;115683;-80
2023/05/27 06:56:32;;;;;;;;;;;18.30;61.30;;;18.86;41.25;99322.22;5065917;27;115003;-80
2023/05/27 06:59:00;;;;;;;;;;;18.30;61.00;;;18.88;41.36;99310.66;5080347;27;123745;-81
2023/05/27 07:01:31;;;;;;;;;;;18.30;61.10;;;18.93;41.27;99307.59;5048179;27;121872;-81
2023/05/27 07:03:57;;;;;;;;;;;18.30;61.50;;;18.94;41.42;99312.84;5089820;27;114639;-81
2023/05/27 07:06:23;;;;;;;;;;;18.30;61.60;;;18.94;41.41;99304.47;5090848;27;113798;-82
2023/05/27 07:08:57;;;;;;;;;;;18.40;61.50;;;19.00;41.32;99318.22;5066389;27;124341;-80
2023/05/27 07:11:23;;;;;;;;;;;18.50;61.60;;;19.05;41.68;99317.94;5075514;27;123061;-82
2023/05/27 07:13:53;;;;;;;;;;;18.50;61.70;;;19.13;41.25;99312.19;5075891;27;114383;-80
2023/05/27 07:16:19;;;;;;;;;;;18.60;61.70;;;19.22;41.23;99314.03;5090573;27;114381;-80
2023/05/27 07:18:46;;;;;;;;;;;18.60;61.30;;;19.25;40.82;99319.72;5088680;27;124042;-79
2023/05/27 07:21:12;;;;;;;;;;;18.70;61.30;;;19.32;41.12;99319.91;5069110;27;124167;-79
2023/05/27 07:23:40;;;;;;;;;;;18.70;61.20;;;19.38;40.99;99321.28;5079677;27;114548;-81
2023/05/27 07:26:07;;;;;;;;;;;18.80;61.20;;;19.48;40.89;99321.91;5062543;27;112930;-80
2023/05/27 07:28:33;;;;;;;;;;;18.90;61.40;;;19.57;40.75;99319.78;5080596;27;124595;-81
2023/05/27 07:31:07;;;;;;;;;;;19.00;61.30;;;19.65;40.75;99314.00;5080236;27;124355;-79
2023/05/27 07:33:33;;;;;;;;;;;19.10;61.40;;;19.75;40.56;99309.06;5068585;27;114769;-82
2023/05/27 07:36:05;;;;;;;;;;;17.90;59.80;;;19.83;40.65;99308.06;5065884;27;114269;-80
2023/05/27 07:38:31;;;;;;;;;;;19.20;61.00;;;19.90;40.07;99305.44;5079541;27;124300;-79
2023/05/27 07:40:57;;;;;;;;;;;19.30;60.80;;;19.93;40.05;99320.72;5065129;27;123784;-80
2023/05/27 07:43:23;;;;;;;;;;;19.40;60.50;;;19.96;40.08;99304.00;5058156;27;115493;-79
2023/05/27 07:45:53;;;;;;;;;;;19.40;60.30;;;20.01;40.18;99300.06;5070289;27;114498;-78
2023/05/27 07:48:22;;;;;;;;;;;19.50;60.30;;;20.09;39.79;99296.25;5085131;27;124397;-76
2023/05/27 07:50:48;;;;;;;;;;;19.50;60.30;;;20.12;39.73;99294.72;5079392;27;124191;-79
2023/05/27 07:53:17;;;;;;;;;;;19.50;60.20;;;20.16;39.74;99296.44;5085189;27;114500;-79
2023/05/27 07:55:44;;;;;;;;;;;19.60;60.10;;;20.17;39.30;99294.44;5084491;27;114065;-79
2023/05/27 07:58:10;;;;;;;;;;;19.60;60.10;;;20.19;39.43;99292.09;5080292;27;124347;-78
2023/05/27 08:00:36;;;;;;;;;;;19.60;59.90;;;20.20;39.46;99296.53;5083469;27;124270;-80
2023/05/27 08:03:06;;;;;;;;;;;19.60;59.80;;;20.23;39.51;99296.63;5061181;27;114503;-78
2023/05/27 08:05:32;;;;;;;;;;;19.60;59.90;;;20.30;39.45;99302.38;5075229;27;113568;-79
2023/05/27 08:07:59;;;;;;;;;;;19.70;59.80;;;20.36;39.29;99288.06;5084384;27;124793;-79
2023/05/27 08:10:32;;;;;;;;;;;19.90;59.80;;;20.40;39.23;99283.38;5079217;27;124461;-81
2023/05/27 08:12:59;;;;;;;;;;;19.80;59.60;;;20.44;38.84;99285.06;5076596;27;114712;-77
2023/05/27 08:15:25;;;;;;;;;;;19.80;59.40;;;20.44;38.79;99273.81;5086845;27;113392;-83
2023/05/27 08:17:55;;;;;;;;;;;19.80;59.20;;;20.48;38.83;99271.13;5088742;27;124794;-80
2023/05/27 08:20:21;;;;;;;;;;;19.90;59.30;;;20.56;38.55;99272.13;5088677;27;124116;-80
2023/05/27 08:22:47;;;;;;;;;;;20.00;59.20;;;20.62;38.23;99265.03;5075529;27;114079;-82
2023/05/27 08:25:17;;;;;;;;;;;20.00;58.70;;;20.66;38.58;99275.16;5064654;27;113939;-78
2023/05/27 08:27:54;;;;;;;;;;;20.00;58.70;;;20.64;38.23;99271.91;5076665;27;124268;-82
2023/05/27 08:30:30;;;;;;;;;;;20.00;58.40;;;20.68;38.45;99264.34;5073355;27;124877;-81
2023/05/27 08:32:58;;;;;;;;;;;20.00;58.50;;;20.74;38.24;99264.88;5080048;27;115455;-82
2023/05/27 08:35:25;;;;;;;;;;;20.10;58.60;;;20.78;38.20;99259.34;5076117;27;114758;-83
2023/05/27 08:37:53;;;;;;;;;;;20.20;58.80;;;20.80;38.53;99256.97;5068472;27;124119;-84
2023/05/27 08:40:19;;;;;;;;;;;20.20;58.60;;;20.86;38.12;99252.69;5077362;27;123860;-83
2023/05/27 08:42:47;;;;;;;;;;;20.30;58.90;;;20.93;37.61;99250.03;5086136;27;114563;-83
2023/05/27 08:45:17;;;;;;;;;;;20.30;58.20;;;21.02;38.03;99244.16;5086581;27;113918;-82
2023/05/27 08:47:43;;;;;;;;;;;20.40;58.30;;;21.13;38.02;99237.56;5079924;27;125339;-82
2023/05/27 08:50:10;;;;;;;;;;;20.50;58.30;;;21.23;37.38;99236.16;5073343;27;123680;-83
2023/05/27 08:52:47;;;;;;;;;;;20.60;58.10;;;21.28;37.24;99232.19;5064880;27;114285;-86
2023/05/27 08:55:19;;;;;;;;;;;20.60;57.70;;;21.28;37.25;99240.63;5079798;27;114377;-84
2023/05/27 08:57:48;;;;;;;;;;;20.60;57.80;;;21.32;37.39;99233.88;5066640;27;124604;-77
2023/05/27 09:00:19;;;;;;;;;;;20.70;58.20;;;21.39;37.45;99233.25;5057812;27;123239;-83
2023/05/27 09:02:48;;;;;;;;;;;20.80;58.10;;;21.47;37.83;99232.19;5089192;27;114874;-81
2023/05/27 09:05:17;;;;;;;;;;;20.80;58.20;;;21.59;37.61;99231.97;5088394;27;113775;-83
2023/05/27 09:07:44;;;;;;;;;;;21.00;58.30;;;21.70;37.10;99231.34;5068377;27;124439;-86
2023/05/27 09:10:13;;;;;;;;;;;21.00;58.10;;;21.80;37.18;99227.91;5081473;27;124308;-83
2023/05/27 09:12:44;;;;;;;;;;;21.10;57.80;;;21.88;36.92;99224.00;5051423;27;114932;-82
2023/05/27 09:15:12;;;;;;;;;;;21.20;57.60;;;21.95;36.89;99221.31;5058441;27;113711;-84
2023/05/27 09:17:46;;;;;;;;;;;21.30;57.60;;;21.97;36.50;99218.91;5059928;27;123632;-82
2023/05/27 09:20:25;;;;;;;;;;;21.70;57.10;;;21.99;36.32;99219.34;5063808;27;124630;-82
2023/05/27 09:23:05;;;;;;;;;;;21.40;56.80;;;22.03;36.33;99223.06;5061019;27;115016;-81
2023/05/27 09:25:32;;;;;;;;;;;21.40;56.90;;;22.10;36.43;99219.50;5085298;27;113861;-81
2023/05/27 09:27:58;;;;;;;;;;;21.50;57.10;;;22.14;36.17;99211.94;5088529;27;124981;-79
2023/05/27 09:30:32;;;;;;;;;;;21.60;56.70;;;22.18;36.32;99218.47;5088177;27;124642;-79
2023/05/27 09:33:08;;;;;;;;;;;21.60;56.70;;;22.23;36.00;99208.88;5079164;27;114546;-78
2023/05/27 09:35:43;;;;;;;;;;;21.70;56.60;;;22.23;35.88;99214.50;5044776;27;112873;-78
2023/05/27 09:38:10;;;;;;;;;;;21.60;56.40;;;22.20;36.10;99212.47;5090642;27;124282;-79
2023/05/27 09:40:37;;;;;;;;;;;21.60;56.30;;;22.21;35.87;99200.00;5088034;27;124105;-78
2023/05/27 09:43:05;;;;;;;;;;;21.60;56.60;;;22.23;35.55;99203.25;5088739;27;115215;-81
2023/05/27 09:45:32;;;;;;;;;;;21.60;56.40;;;22.28;36.15;99202.91;5059276;27;114019;-80
2023/05/27 09:48:01;;;;;;;;;;;21.70;56.50;;;22.36;36.07;99198.19;5063155;27;124623;-80
2023/05/27 09:50:30;;;;;;;;;;;21.80;56.60;;;22.41;36.10;99198.66;5066197;27;123877;-85
2023/05/27 09:52:57;;;;;;;;;;;21.80;56.50;;;22.50;35.92;99189.94;5068887;27;114661;-84
2023/05/27 09:55:31;;;;;;;;;;;21.90;56.60;;;22.57;35.89;99190.03;5082053;27;113627;-84
2023/05/27 09:57:58;;;;;;;;;;;22.00;56.50;;;22.62;35.60;99191.66;5065884;27;123838;-83
2023/05/27 10:00:30;;;;;;;;;;;22.10;56.50;;;22.67;35.77;99196.97;5056972;27;123927;-83
2023/05/27 10:02:58;;;;;;;;;;;22.10;56.20;;;22.71;35.82;99192.19;5060818;27;114451;-84
2023/05/27 10:05:34;;;;;;;;;;;22.20;56.40;;;22.79;35.79;99184.66;5069223;27;114040;-84
2023/05/27 10:08:01;;;;;;;;;;;22.20;56.30;;;22.83;35.49;99183.47;5090248;27;123990;-84
2023/05/27 10:10:28;;;;;;;;;;;22.30;56.10;;;22.89;35.12;99189.56;5072545;27;123831;-84
2023/05/27 10:12:55;;;;;;;;;;;22.30;55.80;;;22.96;34.97;99188.84;5067471;27;115401;-84
2023/05/27 10:15:32;;;;;;;;;;;22.40;55.60;;;23.00;35.19;99173.63;5059784;27;114194;-83
2023/05/27 10:18:06;;;;;;;;;;;22.40;55.80;;;23.06;34.59;99176.91;5077095;27;123863;-83
2023/05/27 10:20:42;;;;;;;;;;;22.40;55.20;;;23.08;34.73;99180.16;5069345;27;124433;-83
2023/05/27 10:23:13;;;;;;;;;;;22.50;55.20;;;23.13;34.75;99166.50;5071762;27;114371;-83
2023/05/27 10:25:45;;;;;;;;;;;22.50;55.50;;;23.17;34.91;99166.53;5060252;27;113255;-84
2023/05/27 10:28:27;;;;;;;;;;;22.60;55.30;;;23.21;34.66;99164.56;5074710;27;124702;-83
2023/05/27 10:31:03;;;;;;;;;;;22.60;55.00;;;23.27;34.65;99168.66;5089669;27;123139;-83
2023/05/27 10:33:30;;;;;;;;;;;22.70;55.20;;;23.30;34.16;99167.88;5085321;27;114730;-83
2023/05/27 10:36:06;;;;;;;;;;;22.70;54.70;;;23.34;34.34;99153.78;5060710;27;113434;-83
2023/05/27 10:38:32;;;;;;;;;;;22.80;54.90;;;23.39;34.01;99159.06;5080299;27;123812;-83
2023/05/27 10:41:06;;;;;;;;;;;22.80;54.60;;;23.46;34.16;99152.69;5073051;27;124431;-83
2023/05/27 10:43:38;;;;;;;;;;;22.90;54.80;;;23.50;34.18;99145.06;5072740;27;114521;-84
2023/05/27 10:46:08;;;;;;;;;;;23.00;54.60;;;23.56;34.29;99149.13;5084089;27;114023;-83
2023/05/27 10:48:40;;;;;;;;;;;23.10;54.90;;;23.64;33.63;99139.50;5089063;27;124469;-83
2023/05/27 10:51:06;;;;;;;;;;;23.10;54.00;;;23.68;33.39;99140.38;5070478;27;124224;-83
2023/05/27 10:53:38;;;;;;;;;;;23.10;53.60;;;23.75;33.57;99134.81;5062944;27;114402;-83
2023/05/27 10:56:09;;;;;;;;;;;23.20;54.00;;;23.85;33.53;99141.72;5081348;27;114150;-84
2023/05/27 10:58:38;;;;;;;;;;;23.30;54.00;;;23.97;33.67;99134.94;5062799;27;123313;-83
2023/05/27 11:01:28;;;;;;;;;;;23.40;54.10;;;24.05;33.41;99130.94;5069299;27;124981;-83
2023/05/27 11:03:54;;;;;;;;;;;23.50;53.80;;;24.16;33.31;99126.16;5090786;27;114607;-83
2023/05/27 11:06:21;;;;;;;;;;;23.60;53.70;;;24.25;32.96;99134.25;5080226;27;114370;-82
2023/05/27 11:08:50;;;;;;;;;;;23.70;53.30;;;24.35;32.71;99132.69;5081133;27;124616;-82
2023/05/27 11:11:16;;;;;;;;;;;23.70;52.80;;;24.40;32.41;99119.00;5061337;27;123631;-82
2023/05/27 11:13:44;;;;;;;;;;;23.80;52.90;;;24.46;32.18;99122.28;5073892;27;114793;-82